メインページ
METAR-TAF:

METAR-TAF

空港 :

仙台空港

仙台, 日本

緯度: 38-08N, 経度: 140-55E, 海抜: 1m

現時点の気象観測

当レポートは23分前の07:00(UTC)に作成
南東の風 9kt
気温 25°C
湿度 79%
気圧 1012 hPa
視程10km以上
高度3000ftの雲はほとんどない
千切れ雲あり

METAR: RJSS 200700Z 14009KT 9999 FEW030 BKN/// 25/21 Q1012

時間: 16:23 (07:23 UTC)

予報

当レポートは2時間15分前の05:08(UTC)に作成
予報は20日の 06時(UTC)から 21日の 12時(UTC)まで有効
南東の風 8kt
視程10km以上
高度800ftの雲はほとんどない
高度1500ftの千切れ雲あり
20日の 08時(UTC)から 20日の 18時(UTC)まで一時的に
高度500ftの雲はほとんどない
高度800ftの千切れ雲あり
高度1500ftの千切れ雲あり
20日の 18時(UTC)から 21日の 00時(UTC)まで一時的に
視程: 4000m
高度500ftの雲はほとんどない
高度800ftの千切れ雲あり
高度1500ftの千切れ雲あり

TAF: RJSS 200508Z 2006/2112 14008KT 9999 FEW008 BKN015 TEMPO 2008/2018 FEW005 BKN008 BKN015 TEMPO 2018/2100 4000 BR FEW005 BKN008 BKN015

4,000以上の空港の気象観測と天気予報(METAR報とTAF報)

利用可能な観測所は地図上に黄色い丸と赤い丸で示す。

丸の上にカーソルを重ねると観測所名を参照できる。

次にクリックすると気象観測と天気予報を参照できる。

マップの切り替え:黒色「×」印の緑ボタンをクリックして拡大、「-」印の緑ボタンをクリックして縮小、緑色の三角印をクリックして隣りの地図に切り替え


METAR-TAF: